Terminal Aerodrome Forecast
Issued by NWS

Home | Current Version | Previous Version | Graphics & Text | Print | Product List | Glossary On
Versions: 1 2 3 4 5 6 7 8 9 10 11 12 13 14 15 16 17 18 19 20 21 22 23 24 25 26 27 28 29 30 31 32 33 34 35 36 37 38 39 40 41 42 43 44 45
439
FTUS43 KLOT 212039 AAA
TAFGYY
TAF AMD
KGYY 212039Z 2121/2218 27015G22KT P6SM OVC060
     FM220100 32014G22KT P6SM FEW040
     FM220400 32012KT P6SM FEW020
     FM221500 29008KT P6SM SCT250=

USA.gov is the U.S. government's official web portal to all federal, state and local government web resources and services.